Minsk, Belarus

2:40 AM FET on August 02, 2014 (GMT +0300)
IU041CU019 Elev 686 ft | 53.97 °N, 27.59 °E | Change Station

Current weather conditions updated 16 minutes ago

Clear
Clear
66.0 °F
Feels Like 66.0 °F
N
0.0
Wind Variable Wind from SSE
Gusts 0.0 mph

Today is forecast to be nearly the same temperature as yesterday.

Today
High -- | Low -- °F
--% Chance of Precip.
Yesterday
High -- | Low -- °F
Precip. -- in
5:24 AM 9:05 PM
Waxing Crescent, 30% visible
Pressure 30.04 in
Visibility -9999.0 miles
Clouds
Dew Point 60 °F
Humidity 80%
Rainfall 0.00 in
Snow Depth Not available.
UV Not available.
Pollen Not available.
Air Quality Not available.
Flu Activity Not available.
METAR UMMS 012330Z 00000MPS CAVOK 18/16 Q1017 R31/CLRD// NOSIG

More Conditions Fewer Conditions

Pressure 30.04 in
Visibility -9999.0 miles
Clouds
Dew Point 60 °F
Humidity 80%
Rainfall 0.00 in
Snow Depth Not available.
UV Not available.
Pollen Not available.
Air Quality Not available.
Flu Activity Not available.
METAR UMMS 012330Z 00000MPS CAVOK 18/16 Q1017 R31/CLRD// NOSIG

More Conditions Fewer Conditions

10-Day Weather Forecast

Almanac

Astronomy

Aug. 02, 2014 Rise Set
Actual Time 5:24 AM FET 9:05 PM FET
Civil Twilight 4:40 AM FET 9:49 PM FET
Nautical Twilight 3:38 AM FET 10:50 PM FET
Astronomical Twilight 1:42 AM FET 12:37 AM FET
Moon 12:29 PM FET (8/2) 11:07 PM FET (8/2)
Length of Visible Light 17h 09m
Length of Day
15h 41m
Tomorrow will be 3m 34s shorter.
Waxing Crescent, 30% of the Moon is Illuminated
Aug 1
Waxing Crescent
Aug 3
First Quarter
Aug 10
Full
Aug 17
Last Quarter
Aug 25
New

Yesterday's Extremes

Country Highs Country Lows

Community

WunderPhotos

Upload Photos

1,739,759 photos uploaded!

Nearby

Snow Depth

Not available.

Earthquake Activity

City Distance Mag. Time & Date
No recent earthquake activity has been reported nearby.
Minimum magnitude displayed is 2.5.

Coastal Water Temperatures

Place Temperature
No Stations Reporting

Nearby Weather Stations

Station Location Temp. Dew Point Humidity Wind Precip. Elev Updated Type
U044C 66.0 °F 60 °F 80% SSE  at  0.0 mph 0.00 in / hr 686 ft 2:24 AM FET Rapid Fire

Show More Stations Show Fewer Stations